sensor_id;sensor_type;location;lat;lon;timestamp;pressure;altitude;pressure_sealevel;temperature;humidity
8941;BME280;4505;43.406;23.226;2023-02-21T00:01:55;100104.56;;;6.20;100.00
8941;BME280;4505;43.406;23.226;2023-02-21T00:04:40;100112.19;;;6.02;100.00
8941;BME280;4505;43.406;23.226;2023-02-21T00:07:24;100096.50;;;6.28;100.00
8941;BME280;4505;43.406;23.226;2023-02-21T00:10:10;100087.44;;;6.44;100.00
8941;BME280;4505;43.406;23.226;2023-02-21T00:12:55;100086.81;;;6.42;100.00
8941;BME280;4505;43.406;23.226;2023-02-21T00:15:40;100088.81;;;6.33;100.00
8941;BME280;4505;43.406;23.226;2023-02-21T00:18:24;100094.66;;;6.22;100.00
8941;BME280;4505;43.406;23.226;2023-02-21T00:21:08;100080.84;;;6.20;100.00
8941;BME280;4505;43.406;23.226;2023-02-21T00:23:52;100077.63;;;6.31;100.00
8941;BME280;4505;43.406;23.226;2023-02-21T00:26:36;100064.63;;;6.23;100.00
8941;BME280;4505;43.406;23.226;2023-02-21T00:29:19;100076.00;;;5.90;100.00
8941;BME280;4505;43.406;23.226;2023-02-21T00:32:05;100066.63;;;6.15;100.00
8941;BME280;4505;43.406;23.226;2023-02-21T00:34:49;100070.09;;;6.22;100.00
8941;BME280;4505;43.406;23.226;2023-02-21T00:37:33;100062.66;;;6.38;100.00
8941;BME280;4505;43.406;23.226;2023-02-21T00:40:17;100051.31;;;6.44;100.00
8941;BME280;4505;43.406;23.226;2023-02-21T00:43:01;100041.09;;;6.28;100.00
8941;BME280;4505;43.406;23.226;2023-02-21T00:45:45;100039.22;;;6.09;100.00
8941;BME280;4505;43.406;23.226;2023-02-21T00:48:30;100029.94;;;6.20;100.00
8941;BME280;4505;43.406;23.226;2023-02-21T00:51:14;100027.91;;;6.22;100.00
8941;BME280;4505;43.406;23.226;2023-02-21T00:53:59;100038.22;;;6.17;100.00
8941;BME280;4505;43.406;23.226;2023-02-21T00:56:43;100031.75;;;6.19;100.00
8941;BME280;4505;43.406;23.226;2023-02-21T00:59:27;100032.16;;;6.16;100.00
8941;BME280;4505;43.406;23.226;2023-02-21T01:02:11;100022.56;;;6.09;100.00
8941;BME280;4505;43.406;23.226;2023-02-21T01:04:56;100026.34;;;5.93;100.00
8941;BME280;4505;43.406;23.226;2023-02-21T01:07:40;100025.22;;;6.02;100.00
8941;BME280;4505;43.406;23.226;2023-02-21T01:10:24;100035.69;;;5.89;100.00
8941;BME280;4505;43.406;23.226;2023-02-21T01:13:08;100025.13;;;5.89;100.00
8941;BME280;4505;43.406;23.226;2023-02-21T01:15:52;100021.69;;;5.61;100.00
8941;BME280;4505;43.406;23.226;2023-02-21T01:18:37;100015.25;;;5.63;100.00
8941;BME280;4505;43.406;23.226;2023-02-21T01:21:22;100009.75;;;5.31;100.00
8941;BME280;4505;43.406;23.226;2023-02-21T01:24:08;100007.84;;;5.46;100.00
8941;BME280;4505;43.406;23.226;2023-02-21T01:26:52;100007.84;;;5.46;100.00
8941;BME280;4505;43.406;23.226;2023-02-21T01:29:36;100002.56;;;5.52;100.00
8941;BME280;4505;43.406;23.226;2023-02-21T01:32:20;100001.25;;;5.35;100.00
8941;BME280;4505;43.406;23.226;2023-02-21T01:35:04;100001.88;;;5.37;100.00
8941;BME280;4505;43.406;23.226;2023-02-21T01:37:50;99984.56;;;5.56;100.00
8941;BME280;4505;43.406;23.226;2023-02-21T01:40:36;99989.09;;;5.68;100.00
8941;BME280;4505;43.406;23.226;2023-02-21T01:43:21;99996.19;;;5.34;100.00
8941;BME280;4505;43.406;23.226;2023-02-21T01:46:05;100003.22;;;5.54;100.00
8941;BME280;4505;43.406;23.226;2023-02-21T01:48:51;100011.22;;;5.40;100.00
8941;BME280;4505;43.406;23.226;2023-02-21T01:51:38;99993.53;;;5.61;100.00
8941;BME280;4505;43.406;23.226;2023-02-21T01:54:24;100005.09;;;5.67;100.00
8941;BME280;4505;43.406;23.226;2023-02-21T01:57:09;100004.81;;;5.83;100.00
8941;BME280;4505;43.406;23.226;2023-02-21T01:59:55;99995.75;;;5.92;100.00
8941;BME280;4505;43.406;23.226;2023-02-21T02:02:41;99993.75;;;5.94;100.00
8941;BME280;4505;43.406;23.226;2023-02-21T02:05:26;99997.38;;;5.93;100.00
8941;BME280;4505;43.406;23.226;2023-02-21T02:08:11;99993.13;;;5.92;100.00
8941;BME280;4505;43.406;23.226;2023-02-21T02:10:58;99976.56;;;6.11;100.00
8941;BME280;4505;43.406;23.226;2023-02-21T02:13:54;99983.19;;;6.01;100.00
8941;BME280;4505;43.406;23.226;2023-02-21T02:16:25;99974.31;;;6.08;100.00
8941;BME280;4505;43.406;23.226;2023-02-21T02:18:57;99980.38;;;6.09;100.00
8941;BME280;4505;43.406;23.226;2023-02-21T02:24:28;99969.63;;;5.97;100.00
8941;BME280;4505;43.406;23.226;2023-02-21T02:35:09;99955.28;;;6.13;100.00
8941;BME280;4505;43.406;23.226;2023-02-21T02:37:39;99959.38;;;6.35;100.00
8941;BME280;4505;43.406;23.226;2023-02-21T02:40:09;99970.78;;;6.55;100.00
8941;BME280;4505;43.406;23.226;2023-02-21T02:42:46;99964.09;;;6.59;100.00
8941;BME280;4505;43.406;23.226;2023-02-21T02:45:16;99959.03;;;6.70;100.00
8941;BME280;4505;43.406;23.226;2023-02-21T02:47:45;99953.97;;;6.69;100.00
8941;BME280;4505;43.406;23.226;2023-02-21T02:50:17;99955.38;;;6.71;100.00
8941;BME280;4505;43.406;23.226;2023-02-21T02:52:51;99947.06;;;6.68;100.00
8941;BME280;4505;43.406;23.226;2023-02-21T02:55:23;99961.06;;;6.81;100.00
8941;BME280;4505;43.406;23.226;2023-02-21T02:57:53;99952.16;;;6.82;100.00
8941;BME280;4505;43.406;23.226;2023-02-21T03:00:20;99950.91;;;6.78;100.00
8941;BME280;4505;43.406;23.226;2023-02-21T03:02:58;99952.16;;;6.76;100.00
8941;BME280;4505;43.406;23.226;2023-02-21T03:05:37;99942.81;;;6.93;100.00
8941;BME280;4505;43.406;23.226;2023-02-21T03:08:07;99950.09;;;6.65;100.00
8941;BME280;4505;43.406;23.226;2023-02-21T03:10:39;99951.13;;;6.83;100.00
8941;BME280;4505;43.406;23.226;2023-02-21T03:13:11;99953.34;;;6.73;100.00
8941;BME280;4505;43.406;23.226;2023-02-21T03:15:39;99950.47;;;6.29;100.00
8941;BME280;4505;43.406;23.226;2023-02-21T03:18:11;99962.88;;;6.48;100.00
8941;BME280;4505;43.406;23.226;2023-02-21T03:20:41;99956.94;;;6.33;100.00
8941;BME280;4505;43.406;23.226;2023-02-21T03:23:09;99961.19;;;6.21;100.00
8941;BME280;4505;43.406;23.226;2023-02-21T03:25:37;99965.88;;;6.32;100.00
8941;BME280;4505;43.406;23.226;2023-02-21T03:28:05;99953.66;;;6.25;100.00
8941;BME280;4505;43.406;23.226;2023-02-21T03:30:32;99954.34;;;6.46;100.00
8941;BME280;4505;43.406;23.226;2023-02-21T03:32:59;99958.59;;;6.60;100.00
8941;BME280;4505;43.406;23.226;2023-02-21T03:35:27;99964.53;;;6.82;100.00
8941;BME280;4505;43.406;23.226;2023-02-21T03:37:56;99950.91;;;6.91;100.00
8941;BME280;4505;43.406;23.226;2023-02-21T03:40:24;99956.41;;;6.83;100.00
8941;BME280;4505;43.406;23.226;2023-02-21T03:42:51;99962.91;;;6.74;100.00
8941;BME280;4505;43.406;23.226;2023-02-21T03:45:18;99943.78;;;6.46;100.00
8941;BME280;4505;43.406;23.226;2023-02-21T03:47:44;99958.34;;;6.23;100.00
8941;BME280;4505;43.406;23.226;2023-02-21T03:50:11;99953.47;;;6.13;100.00
8941;BME280;4505;43.406;23.226;2023-02-21T03:52:38;99962.69;;;5.90;100.00
8941;BME280;4505;43.406;23.226;2023-02-21T03:55:06;99966.56;;;5.94;100.00
8941;BME280;4505;43.406;23.226;2023-02-21T03:57:33;99967.72;;;5.84;100.00
8941;BME280;4505;43.406;23.226;2023-02-21T04:00:00;99962.91;;;5.95;100.00
8941;BME280;4505;43.406;23.226;2023-02-21T04:02:27;99963.00;;;5.80;100.00
8941;BME280;4505;43.406;23.226;2023-02-21T04:04:53;99956.81;;;5.88;100.00
8941;BME280;4505;43.406;23.226;2023-02-21T04:07:20;99958.19;;;5.83;100.00
8941;BME280;4505;43.406;23.226;2023-02-21T04:09:47;99967.94;;;5.90;100.00
8941;BME280;4505;43.406;23.226;2023-02-21T04:12:15;99959.47;;;5.94;100.00
8941;BME280;4505;43.406;23.226;2023-02-21T04:14:41;99959.78;;;5.78;100.00
8941;BME280;4505;43.406;23.226;2023-02-21T04:17:08;99966.88;;;5.77;100.00
8941;BME280;4505;43.406;23.226;2023-02-21T04:19:35;99957.50;;;5.75;100.00
8941;BME280;4505;43.406;23.226;2023-02-21T04:22:02;99951.91;;;5.84;100.00
8941;BME280;4505;43.406;23.226;2023-02-21T04:24:28;99944.00;;;5.84;100.00
8941;BME280;4505;43.406;23.226;2023-02-21T04:26:55;99940.47;;;6.12;100.00
8941;BME280;4505;43.406;23.226;2023-02-21T04:29:23;99926.75;;;6.36;100.00
8941;BME280;4505;43.406;23.226;2023-02-21T04:31:50;99922.50;;;6.93;100.00
8941;BME280;4505;43.406;23.226;2023-02-21T04:34:16;99942.56;;;6.36;100.00
8941;BME280;4505;43.406;23.226;2023-02-21T04:36:43;99932.56;;;6.12;100.00
8941;BME280;4505;43.406;23.226;2023-02-21T04:39:10;99928.03;;;5.93;100.00
8941;BME280;4505;43.406;23.226;2023-02-21T04:41:36;99924.69;;;6.31;100.00
8941;BME280;4505;43.406;23.226;2023-02-21T04:44:03;99923.91;;;6.50;100.00
8941;BME280;4505;43.406;23.226;2023-02-21T04:46:31;99921.06;;;6.45;100.00
8941;BME280;4505;43.406;23.226;2023-02-21T04:48:58;99923.91;;;6.37;100.00
8941;BME280;4505;43.406;23.226;2023-02-21T04:51:25;99922.88;;;6.38;100.00
8941;BME280;4505;43.406;23.226;2023-02-21T04:53:52;99921.66;;;6.47;100.00
8941;BME280;4505;43.406;23.226;2023-02-21T04:56:20;99912.16;;;6.66;100.00
8941;BME280;4505;43.406;23.226;2023-02-21T04:58:47;99920.06;;;6.72;100.00
8941;BME280;4505;43.406;23.226;2023-02-21T05:01:28;99907.88;;;6.84;100.00
8941;BME280;4505;43.406;23.226;2023-02-21T05:03:56;99926.13;;;6.99;100.00
8941;BME280;4505;43.406;23.226;2023-02-21T05:06:24;99917.78;;;7.08;100.00
8941;BME280;4505;43.406;23.226;2023-02-21T05:08:51;99912.72;;;7.00;100.00
8941;BME280;4505;43.406;23.226;2023-02-21T05:11:18;99911.06;;;7.32;100.00
8941;BME280;4505;43.406;23.226;2023-02-21T05:13:45;99904.34;;;7.29;100.00
8941;BME280;4505;43.406;23.226;2023-02-21T05:16:12;99901.72;;;7.23;100.00
8941;BME280;4505;43.406;23.226;2023-02-21T05:18:40;99900.31;;;7.27;100.00
8941;BME280;4505;43.406;23.226;2023-02-21T05:21:08;99907.41;;;7.26;100.00
8941;BME280;4505;43.406;23.226;2023-02-21T05:23:35;99913.66;;;7.45;100.00
8941;BME280;4505;43.406;23.226;2023-02-21T05:26:04;99907.97;;;7.55;100.00
8941;BME280;4505;43.406;23.226;2023-02-21T05:28:32;99916.88;;;7.54;100.00
8941;BME280;4505;43.406;23.226;2023-02-21T05:30:58;99901.47;;;7.44;100.00
8941;BME280;4505;43.406;23.226;2023-02-21T05:33:25;99899.78;;;7.63;100.00
8941;BME280;4505;43.406;23.226;2023-02-21T05:35:52;99901.00;;;7.60;100.00
8941;BME280;4505;43.406;23.226;2023-02-21T05:38:20;99899.72;;;7.76;100.00
8941;BME280;4505;43.406;23.226;2023-02-21T05:40:47;99905.72;;;7.45;100.00
8941;BME280;4505;43.406;23.226;2023-02-21T05:43:14;99900.72;;;7.17;100.00
8941;BME280;4505;43.406;23.226;2023-02-21T05:45:41;99894.84;;;7.15;100.00
8941;BME280;4505;43.406;23.226;2023-02-21T05:48:07;99900.09;;;7.22;100.00
8941;BME280;4505;43.406;23.226;2023-02-21T05:50:34;99897.03;;;7.38;100.00
8941;BME280;4505;43.406;23.226;2023-02-21T05:53:01;99898.63;;;7.39;100.00
8941;BME280;4505;43.406;23.226;2023-02-21T05:55:29;99902.13;;;7.26;100.00
8941;BME280;4505;43.406;23.226;2023-02-21T05:57:55;99909.41;;;7.31;100.00
8941;BME280;4505;43.406;23.226;2023-02-21T06:00:25;99900.50;;;7.25;100.00
8941;BME280;4505;43.406;23.226;2023-02-21T06:02:53;99896.19;;;7.38;100.00
8941;BME280;4505;43.406;23.226;2023-02-21T06:05:20;99899.66;;;7.45;100.00
8941;BME280;4505;43.406;23.226;2023-02-21T06:07:46;99900.41;;;7.52;100.00
8941;BME280;4505;43.406;23.226;2023-02-21T06:10:14;99909.34;;;7.57;100.00
8941;BME280;4505;43.406;23.226;2023-02-21T06:12:42;99909.13;;;7.65;100.00
8941;BME280;4505;43.406;23.226;2023-02-21T06:15:09;99896.84;;;7.77;100.00
8941;BME280;4505;43.406;23.226;2023-02-21T06:17:37;99904.66;;;8.03;100.00
8941;BME280;4505;43.406;23.226;2023-02-21T06:20:05;99901.09;;;8.29;100.00
8941;BME280;4505;43.406;23.226;2023-02-21T06:22:31;99890.69;;;8.34;100.00
8941;BME280;4505;43.406;23.226;2023-02-21T06:24:58;99882.38;;;8.55;100.00
8941;BME280;4505;43.406;23.226;2023-02-21T06:27:25;99891.94;;;8.56;100.00
8941;BME280;4505;43.406;23.226;2023-02-21T06:29:52;99888.13;;;8.77;100.00
8941;BME280;4505;43.406;23.226;2023-02-21T06:32:19;99875.00;;;9.06;100.00
8941;BME280;4505;43.406;23.226;2023-02-21T06:34:46;99886.16;;;8.90;100.00
8941;BME280;4505;43.406;23.226;2023-02-21T06:37:13;99890.56;;;8.96;100.00
8941;BME280;4505;43.406;23.226;2023-02-21T06:39:40;99888.75;;;8.97;100.00
8941;BME280;4505;43.406;23.226;2023-02-21T06:42:06;99880.97;;;9.20;100.00
8941;BME280;4505;43.406;23.226;2023-02-21T06:44:36;99887.22;;;9.07;100.00
8941;BME280;4505;43.406;23.226;2023-02-21T06:47:04;99891.19;;;9.16;100.00
8941;BME280;4505;43.406;23.226;2023-02-21T06:49:31;99869.66;;;9.31;100.00
8941;BME280;4505;43.406;23.226;2023-02-21T06:51:57;99881.56;;;9.04;100.00
8941;BME280;4505;43.406;23.226;2023-02-21T06:54:24;99892.88;;;8.93;100.00
8941;BME280;4505;43.406;23.226;2023-02-21T06:56:51;99869.06;;;9.47;100.00
8941;BME280;4505;43.406;23.226;2023-02-21T06:59:17;99886.06;;;9.39;100.00
8941;BME280;4505;43.406;23.226;2023-02-21T07:01:44;99874.22;;;9.89;100.00
8941;BME280;4505;43.406;23.226;2023-02-21T07:04:12;99864.19;;;9.91;100.00
8941;BME280;4505;43.406;23.226;2023-02-21T07:06:39;99864.81;;;10.35;100.00
8941;BME280;4505;43.406;23.226;2023-02-21T07:09:06;99868.53;;;10.34;100.00
8941;BME280;4505;43.406;23.226;2023-02-21T07:11:36;99859.22;;;10.89;100.00
8941;BME280;4505;43.406;23.226;2023-02-21T07:14:02;99853.56;;;11.08;100.00
8941;BME280;4505;43.406;23.226;2023-02-21T07:16:29;99855.25;;;11.26;96.22
8941;BME280;4505;43.406;23.226;2023-02-21T07:18:56;99858.84;;;11.43;89.92
8941;BME280;4505;43.406;23.226;2023-02-21T07:21:30;99855.91;;;11.56;84.52
8941;BME280;4505;43.406;23.226;2023-02-21T07:23:57;99857.28;;;11.58;83.36
8941;BME280;4505;43.406;23.226;2023-02-21T07:26:24;99856.47;;;11.70;83.58
8941;BME280;4505;43.406;23.226;2023-02-21T07:28:58;99847.13;;;11.55;86.76
8941;BME280;4505;43.406;23.226;2023-02-21T07:31:25;99845.44;;;11.38;89.48
8941;BME280;4505;43.406;23.226;2023-02-21T07:33:51;99841.94;;;11.89;83.80
8941;BME280;4505;43.406;23.226;2023-02-21T07:36:18;99840.63;;;12.19;79.81
8941;BME280;4505;43.406;23.226;2023-02-21T07:38:46;99838.69;;;12.48;76.36
8941;BME280;4505;43.406;23.226;2023-02-21T07:41:20;99835.22;;;12.80;68.23
8941;BME280;4505;43.406;23.226;2023-02-21T07:43:49;99832.91;;;13.22;62.74
8941;BME280;4505;43.406;23.226;2023-02-21T07:46:18;99827.78;;;13.37;58.73
8941;BME280;4505;43.406;23.226;2023-02-21T07:48:47;99829.44;;;13.65;55.72
8941;BME280;4505;43.406;23.226;2023-02-21T07:51:16;99831.22;;;13.81;54.04
8941;BME280;4505;43.406;23.226;2023-02-21T07:53:49;99825.03;;;14.28;49.76
8941;BME280;4505;43.406;23.226;2023-02-21T07:56:15;99828.69;;;14.49;48.86
8941;BME280;4505;43.406;23.226;2023-02-21T07:58:42;99833.25;;;14.54;47.11
8941;BME280;4505;43.406;23.226;2023-02-21T08:01:09;99829.50;;;14.86;45.58
8941;BME280;4505;43.406;23.226;2023-02-21T08:03:35;99828.63;;;15.27;45.04
8941;BME280;4505;43.406;23.226;2023-02-21T08:06:05;99824.06;;;15.80;42.82
8941;BME280;4505;43.406;23.226;2023-02-21T08:08:34;99832.94;;;16.05;42.86
8941;BME280;4505;43.406;23.226;2023-02-21T08:11:02;99830.81;;;16.17;42.03
8941;BME280;4505;43.406;23.226;2023-02-21T08:13:29;99824.72;;;16.62;40.81
8941;BME280;4505;43.406;23.226;2023-02-21T08:15:55;99827.91;;;16.89;40.13
8941;BME280;4505;43.406;23.226;2023-02-21T08:18:23;99826.00;;;16.94;39.33
8941;BME280;4505;43.406;23.226;2023-02-21T08:20:50;99823.31;;;16.84;39.11
8941;BME280;4505;43.406;23.226;2023-02-21T08:23:16;99819.25;;;17.07;39.19
8941;BME280;4505;43.406;23.226;2023-02-21T08:25:43;99819.09;;;17.57;38.67
8941;BME280;4505;43.406;23.226;2023-02-21T08:28:12;99817.25;;;17.53;38.84
8941;BME280;4505;43.406;23.226;2023-02-21T08:30:38;99819.69;;;17.49;38.76
8941;BME280;4505;43.406;23.226;2023-02-21T08:33:05;99814.31;;;17.98;39.10
8941;BME280;4505;43.406;23.226;2023-02-21T08:35:32;99814.84;;;17.51;38.09
8941;BME280;4505;43.406;23.226;2023-02-21T08:37:58;99815.38;;;17.53;38.43
8941;BME280;4505;43.406;23.226;2023-02-21T08:40:27;99835.59;;;17.21;38.53
8941;BME280;4505;43.406;23.226;2023-02-21T08:42:54;99819.94;;;17.48;37.74
8941;BME280;4505;43.406;23.226;2023-02-21T08:45:22;99827.66;;;18.51;31.38
8941;BME280;4505;43.406;23.226;2023-02-21T08:47:50;99821.88;;;19.44;28.13
8941;BME280;4505;43.406;23.226;2023-02-21T08:50:17;99821.53;;;19.27;31.02
8941;BME280;4505;43.406;23.226;2023-02-21T08:52:44;99830.44;;;18.70;34.96
8941;BME280;4505;43.406;23.226;2023-02-21T08:55:11;99820.91;;;18.83;33.50
8941;BME280;4505;43.406;23.226;2023-02-21T08:57:37;99814.03;;;18.72;35.17
8941;BME280;4505;43.406;23.226;2023-02-21T09:00:05;99826.66;;;18.71;35.60
8941;BME280;4505;43.406;23.226;2023-02-21T09:02:36;99817.84;;;19.41;34.12
8941;BME280;4505;43.406;23.226;2023-02-21T09:05:04;99821.84;;;18.97;34.63
8941;BME280;4505;43.406;23.226;2023-02-21T09:07:31;99809.28;;;20.00;33.63
8941;BME280;4505;43.406;23.226;2023-02-21T09:09:58;99812.50;;;20.53;31.94
8941;BME280;4505;43.406;23.226;2023-02-21T09:12:26;99815.59;;;19.90;31.41
8941;BME280;4505;43.406;23.226;2023-02-21T09:14:52;99818.47;;;20.18;32.36
8941;BME280;4505;43.406;23.226;2023-02-21T09:17:19;99817.28;;;20.42;28.37
8941;BME280;4505;43.406;23.226;2023-02-21T09:19:47;99812.59;;;20.11;28.33
8941;BME280;4505;43.406;23.226;2023-02-21T09:22:13;99808.94;;;21.03;25.97
8941;BME280;4505;43.406;23.226;2023-02-21T09:24:40;99804.34;;;21.31;26.96
8941;BME280;4505;43.406;23.226;2023-02-21T09:27:07;99812.50;;;21.66;26.03
8941;BME280;4505;43.406;23.226;2023-02-21T09:29:34;99803.75;;;21.96;26.38
8941;BME280;4505;43.406;23.226;2023-02-21T09:32:01;99800.06;;;21.16;26.14
8941;BME280;4505;43.406;23.226;2023-02-21T09:34:29;99804.34;;;21.17;25.32
8941;BME280;4505;43.406;23.226;2023-02-21T09:36:57;99784.75;;;21.11;25.03
8941;BME280;4505;43.406;23.226;2023-02-21T09:39:24;99802.13;;;21.33;24.83
8941;BME280;4505;43.406;23.226;2023-02-21T09:41:50;99786.75;;;22.18;24.98
8941;BME280;4505;43.406;23.226;2023-02-21T09:44:20;99786.97;;;21.72;25.23
8941;BME280;4505;43.406;23.226;2023-02-21T09:46:48;99804.31;;;21.44;24.86
8941;BME280;4505;43.406;23.226;2023-02-21T09:49:16;99780.66;;;21.27;24.75
8941;BME280;4505;43.406;23.226;2023-02-21T09:51:46;99795.34;;;21.21;25.75
8941;BME280;4505;43.406;23.226;2023-02-21T09:54:16;99775.91;;;21.47;25.77
8941;BME280;4505;43.406;23.226;2023-02-21T09:56:44;99788.81;;;21.99;25.06
8941;BME280;4505;43.406;23.226;2023-02-21T09:59:11;99776.41;;;21.76;25.07
8941;BME280;4505;43.406;23.226;2023-02-21T10:01:42;99771.31;;;21.96;24.80
8941;BME280;4505;43.406;23.226;2023-02-21T10:04:14;99773.47;;;21.72;24.62
8941;BME280;4505;43.406;23.226;2023-02-21T10:06:47;99781.81;;;21.76;23.91
8941;BME280;4505;43.406;23.226;2023-02-21T10:09:20;99755.09;;;22.18;23.45
8941;BME280;4505;43.406;23.226;2023-02-21T10:11:54;99759.59;;;22.01;23.44
8941;BME280;4505;43.406;23.226;2023-02-21T10:14:26;99748.91;;;22.48;23.12
8941;BME280;4505;43.406;23.226;2023-02-21T10:16:56;99743.94;;;22.42;23.24
8941;BME280;4505;43.406;23.226;2023-02-21T10:19:25;99741.31;;;21.84;23.77
8941;BME280;4505;43.406;23.226;2023-02-21T10:21:55;99740.72;;;21.74;23.35
8941;BME280;4505;43.406;23.226;2023-02-21T10:24:26;99723.25;;;21.58;23.66
8941;BME280;4505;43.406;23.226;2023-02-21T10:26:56;99740.13;;;21.63;23.72
8941;BME280;4505;43.406;23.226;2023-02-21T10:29:25;99737.53;;;21.85;23.50
8941;BME280;4505;43.406;23.226;2023-02-21T10:31:56;99703.53;;;21.93;23.38
8941;BME280;4505;43.406;23.226;2023-02-21T10:34:27;99711.50;;;22.20;23.36
8941;BME280;4505;43.406;23.226;2023-02-21T10:36:54;99705.22;;;22.33;23.34
8941;BME280;4505;43.406;23.226;2023-02-21T10:39:26;99724.19;;;22.11;23.17
8941;BME280;4505;43.406;23.226;2023-02-21T10:41:56;99711.91;;;22.35;23.02
8941;BME280;4505;43.406;23.226;2023-02-21T10:44:25;99708.13;;;22.36;23.24
8941;BME280;4505;43.406;23.226;2023-02-21T10:46:54;99707.97;;;22.41;23.00
8941;BME280;4505;43.406;23.226;2023-02-21T10:49:24;99713.22;;;22.46;23.06
8941;BME280;4505;43.406;23.226;2023-02-21T10:52:04;99700.41;;;22.52;23.05
8941;BME280;4505;43.406;23.226;2023-02-21T10:54:33;99706.84;;;22.12;23.09
8941;BME280;4505;43.406;23.226;2023-02-21T10:56:59;99699.13;;;22.27;23.41
8941;BME280;4505;43.406;23.226;2023-02-21T10:59:28;99693.34;;;22.42;23.41
8941;BME280;4505;43.406;23.226;2023-02-21T11:01:56;99690.59;;;22.64;23.03
8941;BME280;4505;43.406;23.226;2023-02-21T11:04:28;99696.72;;;22.17;23.53
8941;BME280;4505;43.406;23.226;2023-02-21T11:06:56;99680.47;;;22.17;23.46
8941;BME280;4505;43.406;23.226;2023-02-21T11:09:30;99686.16;;;22.69;23.12
8941;BME280;4505;43.406;23.226;2023-02-21T11:12:03;99688.56;;;22.79;23.02
8941;BME280;4505;43.406;23.226;2023-02-21T11:14:30;99678.31;;;22.58;23.54
8941;BME280;4505;43.406;23.226;2023-02-21T11:17:10;99667.19;;;22.60;23.25
8941;BME280;4505;43.406;23.226;2023-02-21T11:22:23;99672.13;;;22.67;23.25
8941;BME280;4505;43.406;23.226;2023-02-21T11:24:56;99665.53;;;22.20;24.15
8941;BME280;4505;43.406;23.226;2023-02-21T11:27:24;99658.47;;;22.10;23.91
8941;BME280;4505;43.406;23.226;2023-02-21T11:29:51;99659.97;;;22.25;23.87
8941;BME280;4505;43.406;23.226;2023-02-21T11:32:21;99666.44;;;22.77;23.56
8941;BME280;4505;43.406;23.226;2023-02-21T11:34:49;99653.75;;;23.03;23.11
8941;BME280;4505;43.406;23.226;2023-02-21T11:37:16;99655.09;;;22.35;23.05
8941;BME280;4505;43.406;23.226;2023-02-21T11:39:48;99647.03;;;22.44;22.97
8941;BME280;4505;43.406;23.226;2023-02-21T11:42:23;99646.22;;;22.83;23.16
8941;BME280;4505;43.406;23.226;2023-02-21T11:45:00;99644.25;;;22.66;23.13
8941;BME280;4505;43.406;23.226;2023-02-21T11:47:30;99638.59;;;22.85;22.76
8941;BME280;4505;43.406;23.226;2023-02-21T11:50:03;99639.16;;;22.64;22.73
8941;BME280;4505;43.406;23.226;2023-02-21T11:52:31;99645.00;;;23.14;22.94
8941;BME280;4505;43.406;23.226;2023-02-21T11:55:00;99646.22;;;22.83;22.95
8941;BME280;4505;43.406;23.226;2023-02-21T11:57:29;99641.41;;;22.71;23.11
8941;BME280;4505;43.406;23.226;2023-02-21T12:00:02;99631.44;;;22.80;23.15
8941;BME280;4505;43.406;23.226;2023-02-21T12:02:44;99630.00;;;23.00;23.31
8941;BME280;4505;43.406;23.226;2023-02-21T12:05:24;99632.16;;;22.63;23.53
8941;BME280;4505;43.406;23.226;2023-02-21T12:07:58;99635.69;;;22.42;23.50
8941;BME280;4505;43.406;23.226;2023-02-21T12:10:31;99632.09;;;22.16;23.18
8941;BME280;4505;43.406;23.226;2023-02-21T12:13:05;99619.09;;;22.26;23.13
8941;BME280;4505;43.406;23.226;2023-02-21T12:15:40;99619.28;;;22.38;22.95
8941;BME280;4505;43.406;23.226;2023-02-21T12:18:16;99618.28;;;22.17;23.22
8941;BME280;4505;43.406;23.226;2023-02-21T12:20:55;99601.88;;;22.22;23.57
8941;BME280;4505;43.406;23.226;2023-02-21T12:23:27;99603.13;;;22.08;23.71
8941;BME280;4505;43.406;23.226;2023-02-21T12:25:58;99608.59;;;22.25;24.01
8941;BME280;4505;43.406;23.226;2023-02-21T12:28:31;99600.28;;;22.52;23.65
8941;BME280;4505;43.406;23.226;2023-02-21T12:31:10;99599.03;;;22.58;23.82
8941;BME280;4505;43.406;23.226;2023-02-21T12:33:41;99642.84;;;21.77;24.13
8941;BME280;4505;43.406;23.226;2023-02-21T12:36:14;99605.63;;;21.60;24.39
8941;BME280;4505;43.406;23.226;2023-02-21T12:38:52;99598.09;;;21.71;24.86
8941;BME280;4505;43.406;23.226;2023-02-21T12:41:30;99597.31;;;21.48;25.08
8941;BME280;4505;43.406;23.226;2023-02-21T12:44:03;99607.84;;;21.36;24.80
8941;BME280;4505;43.406;23.226;2023-02-21T12:46:35;99591.69;;;21.45;24.84
8941;BME280;4505;43.406;23.226;2023-02-21T12:49:05;99613.94;;;21.86;24.61
8941;BME280;4505;43.406;23.226;2023-02-21T12:51:35;99602.88;;;21.74;24.42
8941;BME280;4505;43.406;23.226;2023-02-21T12:54:04;99600.41;;;21.64;24.84
8941;BME280;4505;43.406;23.226;2023-02-21T12:56:34;99588.47;;;21.78;24.63
8941;BME280;4505;43.406;23.226;2023-02-21T12:59:02;99596.66;;;22.26;24.49
8941;BME280;4505;43.406;23.226;2023-02-21T13:01:32;99593.91;;;21.65;24.70
8941;BME280;4505;43.406;23.226;2023-02-21T13:04:03;99595.88;;;22.25;24.73
8941;BME280;4505;43.406;23.226;2023-02-21T13:06:32;99596.34;;;22.27;24.46
8941;BME280;4505;43.406;23.226;2023-02-21T13:09:12;99586.19;;;22.89;24.24
8941;BME280;4505;43.406;23.226;2023-02-21T13:11:41;99580.72;;;22.16;24.73
8941;BME280;4505;43.406;23.226;2023-02-21T13:14:17;99564.63;;;21.80;24.88
8941;BME280;4505;43.406;23.226;2023-02-21T13:16:45;99584.56;;;21.93;24.94
8941;BME280;4505;43.406;23.226;2023-02-21T13:19:13;99569.97;;;22.02;24.74
8941;BME280;4505;43.406;23.226;2023-02-21T13:21:45;99613.59;;;21.79;24.39
8941;BME280;4505;43.406;23.226;2023-02-21T13:27:26;99580.41;;;22.26;24.47
8941;BME280;4505;43.406;23.226;2023-02-21T13:29:58;99573.16;;;22.43;24.58
8941;BME280;4505;43.406;23.226;2023-02-21T13:32:27;99574.78;;;22.44;24.55
8941;BME280;4505;43.406;23.226;2023-02-21T13:34:59;99567.22;;;22.81;24.40
8941;BME280;4505;43.406;23.226;2023-02-21T13:37:28;99579.59;;;22.17;24.40
8941;BME280;4505;43.406;23.226;2023-02-21T13:39:56;99573.38;;;22.08;24.46
8941;BME280;4505;43.406;23.226;2023-02-21T13:42:29;99570.50;;;21.82;24.55
8941;BME280;4505;43.406;23.226;2023-02-21T13:45:05;99567.69;;;21.43;25.17
8941;BME280;4505;43.406;23.226;2023-02-21T13:53:15;99557.59;;;22.01;25.23
8941;BME280;4505;43.406;23.226;2023-02-21T14:01:20;99556.25;;;22.29;24.74